»·PEaware :: WAT169 KRNO-KLAS

WAT169 :: KRNO-KLAS

FLIGHT INFORMATION

Flight Status: Arrived
Operator:
Walker Air Transport
More flights by this operator :: More flights under this callsign
Pilot: Marty P. (27464)
Aircraft: BOEING 737-800
(B738)
More flights by this aircraft type
Origin: KRNO Reno/Tahoe Intl
United States
Destination: KLAS McCarran Intl
United States
More flights between these airports :: More routes between these airports
Route: +ZEFFR6 PESKE LIDAT J92 BTY SUNST4
File this flight plan on PilotEdge
Remarks:
Altitude:
(Current/Filed)
31,000ft
Speed:
(Current/Filed)
480kts
Departed: 12-Nov-20 09:58 AM
Arrived: 12-Nov-20 10:50 AM
Distance/Time
Traveled:
300nm/0:52
Distance/Time
To Go:
Arrived

Flight Plot

Page will automatically refresh every two minutes.

Flight plan parsing failed; only flown route is shown


Map Options




Map Legend


Flown Route
Filed Route
Departure Airport
Arrival Airport
Navaid (VOR, NDB)
Fix

Horizontal Profiles

Position Reports

Time Latitude Longitude Heading Altitude Ground
Speed
12-Nov-20 09:20 39.504393 -119.774256 16 4426ft 0kts
12-Nov-20 09:21 39.504393 -119.774256 16 4426ft 0kts
12-Nov-20 09:22 39.504393 -119.774256 16 4426ft 0kts
12-Nov-20 09:23 39.504393 -119.774256 16 4426ft 0kts
12-Nov-20 09:24 39.504393 -119.774256 16 4426ft 0kts
12-Nov-20 09:25 39.504393 -119.774256 16 4426ft 0kts
12-Nov-20 09:26 39.504393 -119.774256 16 4426ft 0kts
12-Nov-20 09:27 39.504392 -119.774256 16 4425ft 0kts
12-Nov-20 09:28 39.504392 -119.774256 16 4425ft 0kts
12-Nov-20 09:29 39.504392 -119.774256 16 4425ft 0kts
12-Nov-20 09:30 39.504392 -119.774256 16 4425ft 0kts
12-Nov-20 09:31 39.504392 -119.774256 16 4425ft 0kts
12-Nov-20 09:32 39.504392 -119.774256 16 4425ft 0kts
12-Nov-20 09:33 39.504392 -119.774256 16 4425ft 0kts
12-Nov-20 09:34 39.504392 -119.774256 16 4425ft 0kts
12-Nov-20 09:35 39.504392 -119.774256 16 4425ft 0kts
12-Nov-20 09:36 39.504392 -119.774256 16 4425ft 0kts
12-Nov-20 09:37 39.504392 -119.774256 16 4425ft 0kts
12-Nov-20 09:38 39.504392 -119.774256 16 4425ft 0kts
12-Nov-20 09:39 39.504392 -119.774256 16 4425ft 0kts
12-Nov-20 09:40 39.504392 -119.774256 16 4425ft 0kts
12-Nov-20 09:41 39.504392 -119.774256 16 4425ft 0kts
12-Nov-20 09:42 39.504392 -119.774256 16 4425ft 0kts
12-Nov-20 09:43 39.504243 -119.774369 13 4425ft 2kts
12-Nov-20 09:44 39.503649 -119.774468 359 4425ft 2kts
12-Nov-20 09:45 39.503742 -119.773583 89 4425ft 7kts
12-Nov-20 09:46 39.503741 -119.772258 89 4425ft 0kts
12-Nov-20 09:47 39.503741 -119.772258 89 4425ft 0kts
12-Nov-20 09:48 39.503741 -119.772258 89 4425ft 0kts
12-Nov-20 09:49 39.503741 -119.772258 89 4425ft 0kts
12-Nov-20 09:50 39.503741 -119.772258 89 4425ft 0kts
12-Nov-20 09:51 39.503741 -119.772258 89 4425ft 0kts
12-Nov-20 09:52 39.503741 -119.772258 89 4425ft 0kts
12-Nov-20 09:53 39.505539 -119.771516 0 4425ft 20kts
12-Nov-20 09:54 39.511982 -119.771489 0 4425ft 25kts
12-Nov-20 09:55 39.513743 -119.770507 89 4425ft 0kts
12-Nov-20 09:56 39.513605 -119.769367 135 4425ft 11kts
12-Nov-20 09:57 39.489810 -119.769273 178 4650ft 166kts
12-Nov-20 09:58 39.437324 -119.768165 185 6059ft 230kts
12-Nov-20 09:59 39.367284 -119.769753 178 9842ft 260kts
12-Nov-20 10:00 39.293937 -119.730966 134 11904ft 341kts
12-Nov-20 10:01 39.228523 -119.632574 132 14875ft 375kts
12-Nov-20 10:02 39.157416 -119.529371 135 17787ft 395kts
12-Nov-20 10:04 39.076188 -119.430148 137 20390ft 411kts
12-Nov-20 10:05 38.991489 -119.327714 138 22671ft 426kts
12-Nov-20 10:06 38.904300 -119.220582 138 24667ft 441kts
12-Nov-20 10:07 38.814255 -119.109704 138 26427ft 455kts
12-Nov-20 10:08 38.723682 -118.992901 135 28028ft 468kts
12-Nov-20 10:09 38.633464 -118.869698 135 29436ft 480kts
12-Nov-20 10:10 38.540698 -118.743688 135 30716ft 491kts
12-Nov-20 10:11 38.445561 -118.615063 136 31214ft 504kts
12-Nov-20 10:12 38.349573 -118.485780 136 31218ft 502kts
12-Nov-20 10:13 38.253351 -118.356758 136 31219ft 502kts
12-Nov-20 10:14 38.156835 -118.227802 137 31219ft 502kts
12-Nov-20 10:15 38.060791 -118.100052 137 31218ft 502kts
12-Nov-20 10:16 37.963808 -117.971603 137 31194ft 503kts
12-Nov-20 10:17 37.867439 -117.844487 137 31183ft 503kts
12-Nov-20 10:18 37.770176 -117.716711 137 31194ft 502kts
12-Nov-20 10:19 37.673340 -117.590017 138 31209ft 503kts
12-Nov-20 10:20 37.575971 -117.463132 138 31209ft 502kts
12-Nov-20 10:21 37.478486 -117.336611 139 31210ft 502kts
12-Nov-20 10:21 37.388371 -117.246823 150 31208ft 494kts
12-Nov-20 10:22 37.276033 -117.148155 151 31210ft 493kts
12-Nov-20 10:24 37.144026 -117.035537 152 31210ft 492kts
12-Nov-20 10:24 37.049145 -116.955350 152 30241ft 493kts
12-Nov-20 10:25 36.935539 -116.859785 151 28647ft 494kts
12-Nov-20 10:26 36.822709 -116.760260 145 27030ft 493kts
12-Nov-20 10:27 36.730133 -116.645363 135 25508ft 450kts
12-Nov-20 10:28 36.650704 -116.533141 135 24154ft 412kts
12-Nov-20 10:29 36.577646 -116.429640 135 22849ft 385kts
12-Nov-20 10:30 36.503788 -116.325195 135 21559ft 403kts
12-Nov-20 10:31 36.430232 -116.221560 135 20766ft 408kts
12-Nov-20 10:32 36.356741 -116.118455 135 18171ft 386kts
12-Nov-20 10:33 36.288206 -116.022345 135 15967ft 339kts
12-Nov-20 10:34 36.227227 -115.937196 135 15974ft 331kts
12-Nov-20 10:35 36.180636 -115.838181 114 15788ft 341kts
12-Nov-20 10:36 36.146120 -115.730454 114 14464ft 328kts
12-Nov-20 10:37 36.112750 -115.626894 113 12921ft 325kts
12-Nov-20 10:38 36.079896 -115.525495 113 10998ft 302kts
12-Nov-20 10:39 36.050829 -115.435891 113 10976ft 276kts
12-Nov-20 10:40 36.028750 -115.345127 97 10818ft 282kts
12-Nov-20 10:41 36.022006 -115.249650 96 9324ft 279kts
12-Nov-20 10:42 36.015429 -115.153922 95 7978ft 267kts
12-Nov-20 10:43 36.010053 -115.069965 94 6599ft 240kts
12-Nov-20 10:44 36.005499 -114.988234 84 4091ft 234kts
12-Nov-20 10:45 36.050563 -114.962937 1 3985ft 191kts
12-Nov-20 10:46 36.073994 -115.008045 267 3964ft 183kts
12-Nov-20 10:47 36.073702 -115.064675 268 3064ft 159kts
12-Nov-20 10:48 36.073620 -115.119241 270 2182ft 159kts
12-Nov-20 10:49 36.074884 -115.146161 313 2105ft 22kts
12-Nov-20 10:50 36.080038 -115.147919 336 2102ft 17kts
12-Nov-20 10:51 36.081369 -115.147871 66 2099ft 0kts
12-Nov-20 10:52 36.081369 -115.147871 66 2099ft 0kts
12-Nov-20 10:53 36.081369 -115.147871 66 2099ft 0kts
12-Nov-20 10:54 36.081369 -115.147871 66 2099ft 0kts
12-Nov-20 10:55 36.081369 -115.147871 66 2099ft 0kts
12-Nov-20 10:56 36.081369 -115.147871 66 2099ft 0kts
12-Nov-20 10:57 36.081369 -115.147871 66 2099ft 0kts
12-Nov-20 10:58 36.081369 -115.147871 66 2099ft 0kts
12-Nov-20 10:59 36.081369 -115.147871 66 2099ft 0kts
12-Nov-20 11:00 36.081369 -115.147871 66 2099ft 0kts
12-Nov-20 11:01 36.081369 -115.147871 66 2099ft 0kts
12-Nov-20 11:02 36.081369 -115.147871 66 2099ft 0kts

Navigation Log

Ident Type
Flight plan parsing failed, navigation log unavailable